This is the latest recevied weather packets stored in our database for station/object SR9WXP. If no packets are shown the sender has not sent any weather packets the latest 1 day(s).
| Time | Temp. | Humidity | Pressure | Rain* | Wind** | Luminosity | Snow |
|---|---|---|---|---|---|---|---|
| 1778001839 | 13.89° C | 49% | 850.9 hPa | - | 4.02 m/s, 188° | - | - |
| 1778001719 | 13.89° C | 49% | 850.8 hPa | - | 3.13 m/s, 189° | - | - |
| 1778001657 | 13.89° C | 48% | 850.8 hPa | - | 3.58 m/s, 186° | - | - |
| 1778001598 | 13.89° C | 48% | 850.7 hPa | - | 3.58 m/s, 181° | - | - |
| 1778001478 | 13.89° C | 48% | 850.7 hPa | - | 3.58 m/s, 184° | - | - |
| 1778001354 | 13.89° C | 48% | 850.6 hPa | - | 4.47 m/s, 185° | - | - |
| 1778001237 | 13.89° C | 48% | 850.7 hPa | - | 4.47 m/s, 187° | - | - |
| 1778001116 | 13.89° C | 48% | 850.8 hPa | - | 3.13 m/s, 195° | - | - |
| 1778001054 | 13.89° C | 48% | 850.7 hPa | - | 3.13 m/s, 198° | - | - |
| 1778000996 | 13.89° C | 48% | 850.7 hPa | - | 3.58 m/s, 193° | - | - |
| 1778000876 | 13.89° C | 48% | 850.7 hPa | - | 4.02 m/s, 193° | - | - |
| 1778000751 | 13.89° C | 48% | 850.7 hPa | - | 4.02 m/s, 196° | - | - |
| 1778000632 | 13.89° C | 48% | 850.7 hPa | - | 4.02 m/s, 188° | - | - |
| 1778000513 | 14.44° C | 48% | 850.7 hPa | - | 4.02 m/s, 185° | - | - |
| 1778000451 | 14.44° C | 48% | 850.7 hPa | - | 4.47 m/s, 183° | - | - |
| 1778000392 | 14.44° C | 48% | 850.7 hPa | - | 4.02 m/s, 185° | - | - |
| 1778000272 | 14.44° C | 47% | 850.7 hPa | - | 4.47 m/s, 189° | - | - |
| 1778000148 | 14.44° C | 47% | 850.7 hPa | - | 4.47 m/s, 183° | - | - |
| 1778000026 | 13.89° C | 47% | 850.8 hPa | - | 3.13 m/s, 189° | - | - |
| 1777999845 | 13.89° C | 47% | 850.8 hPa | - | 4.47 m/s, 184° | - | - |
| 1777999786 | 13.89° C | 47% | 850.8 hPa | - | 4.92 m/s, 186° | - | - |
| 1777999666 | 13.89° C | 47% | 850.9 hPa | - | 4.47 m/s, 186° | - | - |
| 1777999542 | 13.89° C | 47% | 850.9 hPa | - | 4.47 m/s, 191° | - | - |
| 1777999423 | 13.33° C | 47% | 851 hPa | - | 4.47 m/s, 189° | - | - |
| 1777999303 | 13.33° C | 47% | 851 hPa | - | 5.36 m/s, 184° | - | - |
* Rain since midnight (hover to see other rain measurements)
** Current wind speed in m/s (hover to see current wind gust speed)